sensor_id;sensor_type;location;lat;lon;timestamp;P1;durP1;ratioP1;P2;durP2;ratioP2
19205;SDS011;59358;52.134;5.596;2023-06-24T00:02:11;15.57;;;12.25;;
19205;SDS011;59358;52.134;5.596;2023-06-24T00:04:38;17.50;;;12.88;;
19205;SDS011;59358;52.134;5.596;2023-06-24T00:07:05;14.43;;;12.63;;
19205;SDS011;59358;52.134;5.596;2023-06-24T00:09:32;14.55;;;12.70;;
19205;SDS011;59358;52.134;5.596;2023-06-24T00:12:01;14.40;;;12.50;;
19205;SDS011;59358;52.134;5.596;2023-06-24T00:14:28;13.82;;;11.98;;
19205;SDS011;59358;52.134;5.596;2023-06-24T00:16:55;13.45;;;11.75;;
19205;SDS011;59358;52.134;5.596;2023-06-24T00:19:23;14.77;;;12.73;;
19205;SDS011;59358;52.134;5.596;2023-06-24T00:21:51;13.15;;;11.68;;
19205;SDS011;59358;52.134;5.596;2023-06-24T00:24:19;17.92;;;13.55;;
19205;SDS011;59358;52.134;5.596;2023-06-24T00:26:46;14.20;;;12.15;;
19205;SDS011;59358;52.134;5.596;2023-06-24T00:29:15;15.10;;;12.07;;
19205;SDS011;59358;52.134;5.596;2023-06-24T00:31:41;17.70;;;13.65;;
19205;SDS011;59358;52.134;5.596;2023-06-24T00:34:08;16.17;;;12.13;;
19205;SDS011;59358;52.134;5.596;2023-06-24T00:36:35;14.52;;;12.65;;
19205;SDS011;59358;52.134;5.596;2023-06-24T00:39:03;13.20;;;11.77;;
19205;SDS011;59358;52.134;5.596;2023-06-24T00:41:30;18.30;;;12.20;;
19205;SDS011;59358;52.134;5.596;2023-06-24T00:43:57;14.48;;;11.88;;
19205;SDS011;59358;52.134;5.596;2023-06-24T00:46:26;14.57;;;12.40;;
19205;SDS011;59358;52.134;5.596;2023-06-24T00:48:54;18.63;;;12.68;;
19205;SDS011;59358;52.134;5.596;2023-06-24T00:51:21;14.90;;;13.23;;
19205;SDS011;59358;52.134;5.596;2023-06-24T00:53:51;15.60;;;12.82;;
19205;SDS011;59358;52.134;5.596;2023-06-24T00:56:18;14.82;;;12.77;;
19205;SDS011;59358;52.134;5.596;2023-06-24T00:58:47;15.05;;;12.40;;
19205;SDS011;59358;52.134;5.596;2023-06-24T01:01:15;15.30;;;12.98;;
19205;SDS011;59358;52.134;5.596;2023-06-24T01:03:43;21.88;;;14.48;;
19205;SDS011;59358;52.134;5.596;2023-06-24T01:06:12;17.75;;;14.60;;
19205;SDS011;59358;52.134;5.596;2023-06-24T01:08:40;14.57;;;13.00;;
19205;SDS011;59358;52.134;5.596;2023-06-24T01:11:07;15.00;;;13.40;;
19205;SDS011;59358;52.134;5.596;2023-06-24T01:13:34;15.70;;;12.77;;
19205;SDS011;59358;52.134;5.596;2023-06-24T01:16:04;16.35;;;13.02;;
19205;SDS011;59358;52.134;5.596;2023-06-24T01:18:38;15.95;;;12.95;;
19205;SDS011;59358;52.134;5.596;2023-06-24T01:21:14;24.63;;;15.07;;
19205;SDS011;59358;52.134;5.596;2023-06-24T01:32:52;18.35;;;15.82;;
19205;SDS011;59358;52.134;5.596;2023-06-24T01:35:23;19.65;;;16.83;;
19205;SDS011;59358;52.134;5.596;2023-06-24T01:37:54;23.52;;;17.10;;
19205;SDS011;59358;52.134;5.596;2023-06-24T01:40:26;19.83;;;16.40;;
19205;SDS011;59358;52.134;5.596;2023-06-24T01:42:55;22.30;;;15.30;;
19205;SDS011;59358;52.134;5.596;2023-06-24T01:45:25;18.00;;;14.93;;
19205;SDS011;59358;52.134;5.596;2023-06-24T01:47:58;21.00;;;15.38;;
19205;SDS011;59358;52.134;5.596;2023-06-24T01:50:28;18.38;;;14.98;;
19205;SDS011;59358;52.134;5.596;2023-06-24T01:52:58;17.23;;;15.38;;
19205;SDS011;59358;52.134;5.596;2023-06-24T01:55:29;20.50;;;15.98;;
19205;SDS011;59358;52.134;5.596;2023-06-24T01:57:58;18.63;;;15.30;;
19205;SDS011;59358;52.134;5.596;2023-06-24T02:00:25;19.83;;;16.40;;
19205;SDS011;59358;52.134;5.596;2023-06-24T02:02:53;21.02;;;16.77;;
19205;SDS011;59358;52.134;5.596;2023-06-24T02:05:22;23.10;;;17.83;;
19205;SDS011;59358;52.134;5.596;2023-06-24T02:07:51;21.73;;;17.00;;
19205;SDS011;59358;52.134;5.596;2023-06-24T02:10:18;20.15;;;16.65;;
19205;SDS011;59358;52.134;5.596;2023-06-24T02:12:48;24.55;;;18.17;;
19205;SDS011;59358;52.134;5.596;2023-06-24T02:15:16;25.02;;;18.40;;
19205;SDS011;59358;52.134;5.596;2023-06-24T02:17:46;23.42;;;17.75;;
19205;SDS011;59358;52.134;5.596;2023-06-24T02:20:15;22.25;;;17.38;;
19205;SDS011;59358;52.134;5.596;2023-06-24T02:22:45;17.98;;;15.48;;
19205;SDS011;59358;52.134;5.596;2023-06-24T02:25:12;22.38;;;16.75;;
19205;SDS011;59358;52.134;5.596;2023-06-24T02:27:39;17.70;;;15.55;;
19205;SDS011;59358;52.134;5.596;2023-06-24T02:30:07;27.95;;;19.48;;
19205;SDS011;59358;52.134;5.596;2023-06-24T02:32:35;25.60;;;18.02;;
19205;SDS011;59358;52.134;5.596;2023-06-24T02:35:03;21.30;;;17.30;;
19205;SDS011;59358;52.134;5.596;2023-06-24T02:37:31;19.58;;;17.13;;
19205;SDS011;59358;52.134;5.596;2023-06-24T02:39:59;24.45;;;18.00;;
19205;SDS011;59358;52.134;5.596;2023-06-24T02:42:26;23.55;;;16.60;;
19205;SDS011;59358;52.134;5.596;2023-06-24T02:44:53;21.75;;;17.33;;
19205;SDS011;59358;52.134;5.596;2023-06-24T02:47:20;21.05;;;17.17;;
19205;SDS011;59358;52.134;5.596;2023-06-24T02:49:48;22.38;;;17.73;;
19205;SDS011;59358;52.134;5.596;2023-06-24T02:52:16;25.73;;;18.65;;
19205;SDS011;59358;52.134;5.596;2023-06-24T02:54:44;24.17;;;18.83;;
19205;SDS011;59358;52.134;5.596;2023-06-24T02:57:12;24.90;;;19.65;;
19205;SDS011;59358;52.134;5.596;2023-06-24T02:59:40;24.85;;;19.00;;
19205;SDS011;59358;52.134;5.596;2023-06-24T03:02:07;24.55;;;17.95;;
19205;SDS011;59358;52.134;5.596;2023-06-24T03:04:35;22.90;;;18.70;;
19205;SDS011;59358;52.134;5.596;2023-06-24T03:07:03;25.85;;;20.20;;
19205;SDS011;59358;52.134;5.596;2023-06-24T03:09:33;25.65;;;20.02;;
19205;SDS011;59358;52.134;5.596;2023-06-24T03:12:01;26.98;;;20.35;;
19205;SDS011;59358;52.134;5.596;2023-06-24T03:14:29;26.05;;;20.00;;
19205;SDS011;59358;52.134;5.596;2023-06-24T03:16:56;24.98;;;19.80;;
19205;SDS011;59358;52.134;5.596;2023-06-24T03:19:23;27.73;;;19.65;;
19205;SDS011;59358;52.134;5.596;2023-06-24T03:21:50;27.73;;;21.40;;
19205;SDS011;59358;52.134;5.596;2023-06-24T03:24:17;24.35;;;19.88;;
19205;SDS011;59358;52.134;5.596;2023-06-24T03:26:43;27.52;;;21.23;;
19205;SDS011;59358;52.134;5.596;2023-06-24T03:29:10;28.13;;;20.38;;
19205;SDS011;59358;52.134;5.596;2023-06-24T03:31:38;23.90;;;19.80;;
19205;SDS011;59358;52.134;5.596;2023-06-24T03:34:09;28.88;;;21.77;;
19205;SDS011;59358;52.134;5.596;2023-06-24T03:36:35;35.03;;;22.25;;
19205;SDS011;59358;52.134;5.596;2023-06-24T03:39:04;25.15;;;20.23;;
19205;SDS011;59358;52.134;5.596;2023-06-24T03:41:31;30.08;;;22.77;;
19205;SDS011;59358;52.134;5.596;2023-06-24T03:43:58;27.20;;;22.02;;
19205;SDS011;59358;52.134;5.596;2023-06-24T03:46:25;27.52;;;22.27;;
19205;SDS011;59358;52.134;5.596;2023-06-24T03:48:55;28.30;;;20.48;;
19205;SDS011;59358;52.134;5.596;2023-06-24T03:51:21;31.05;;;21.23;;
19205;SDS011;59358;52.134;5.596;2023-06-24T03:53:48;27.52;;;20.83;;
19205;SDS011;59358;52.134;5.596;2023-06-24T03:56:16;28.48;;;20.65;;
19205;SDS011;59358;52.134;5.596;2023-06-24T03:58:43;29.85;;;19.98;;
19205;SDS011;59358;52.134;5.596;2023-06-24T04:01:10;33.25;;;22.33;;
19205;SDS011;59358;52.134;5.596;2023-06-24T04:03:37;28.33;;;21.10;;
19205;SDS011;59358;52.134;5.596;2023-06-24T04:06:05;25.92;;;20.63;;
19205;SDS011;59358;52.134;5.596;2023-06-24T04:08:32;28.38;;;22.10;;
19205;SDS011;59358;52.134;5.596;2023-06-24T04:10:59;26.98;;;21.20;;
19205;SDS011;59358;52.134;5.596;2023-06-24T04:13:27;27.35;;;20.27;;
19205;SDS011;59358;52.134;5.596;2023-06-24T04:15:54;26.83;;;20.50;;
19205;SDS011;59358;52.134;5.596;2023-06-24T04:18:21;29.23;;;19.50;;
19205;SDS011;59358;52.134;5.596;2023-06-24T04:20:48;28.55;;;20.83;;
19205;SDS011;59358;52.134;5.596;2023-06-24T04:23:16;26.80;;;20.30;;
19205;SDS011;59358;52.134;5.596;2023-06-24T04:25:43;28.17;;;20.52;;
19205;SDS011;59358;52.134;5.596;2023-06-24T04:28:10;24.83;;;19.83;;
19205;SDS011;59358;52.134;5.596;2023-06-24T04:30:37;29.10;;;21.15;;
19205;SDS011;59358;52.134;5.596;2023-06-24T04:33:04;31.80;;;21.17;;
19205;SDS011;59358;52.134;5.596;2023-06-24T04:35:31;25.02;;;19.90;;
19205;SDS011;59358;52.134;5.596;2023-06-24T04:37:58;29.52;;;20.30;;
19205;SDS011;59358;52.134;5.596;2023-06-24T04:40:26;31.80;;;20.33;;
19205;SDS011;59358;52.134;5.596;2023-06-24T04:42:53;29.77;;;19.35;;
19205;SDS011;59358;52.134;5.596;2023-06-24T04:45:20;24.25;;;19.58;;
19205;SDS011;59358;52.134;5.596;2023-06-24T04:47:47;29.38;;;19.75;;
19205;SDS011;59358;52.134;5.596;2023-06-24T04:50:14;37.78;;;21.45;;
19205;SDS011;59358;52.134;5.596;2023-06-24T04:52:40;28.45;;;19.70;;
19205;SDS011;59358;52.134;5.596;2023-06-24T04:55:08;26.67;;;19.25;;
19205;SDS011;59358;52.134;5.596;2023-06-24T04:57:36;24.50;;;18.17;;
19205;SDS011;59358;52.134;5.596;2023-06-24T05:00:03;24.83;;;18.20;;
19205;SDS011;59358;52.134;5.596;2023-06-24T05:02:31;24.70;;;16.80;;
19205;SDS011;59358;52.134;5.596;2023-06-24T05:04:58;23.65;;;15.65;;
19205;SDS011;59358;52.134;5.596;2023-06-24T05:07:25;24.63;;;15.77;;
19205;SDS011;59358;52.134;5.596;2023-06-24T05:09:52;21.85;;;15.43;;
19205;SDS011;59358;52.134;5.596;2023-06-24T05:12:19;23.65;;;15.25;;
19205;SDS011;59358;52.134;5.596;2023-06-24T05:14:50;17.55;;;14.35;;
19205;SDS011;59358;52.134;5.596;2023-06-24T05:17:18;19.55;;;14.43;;
19205;SDS011;59358;52.134;5.596;2023-06-24T05:19:44;14.63;;;12.10;;
19205;SDS011;59358;52.134;5.596;2023-06-24T05:22:11;14.38;;;11.57;;
19205;SDS011;59358;52.134;5.596;2023-06-24T05:24:38;15.43;;;10.98;;
19205;SDS011;59358;52.134;5.596;2023-06-24T05:27:06;15.88;;;11.10;;
19205;SDS011;59358;52.134;5.596;2023-06-24T05:29:34;14.32;;;11.30;;
19205;SDS011;59358;52.134;5.596;2023-06-24T05:32:02;16.17;;;11.48;;
19205;SDS011;59358;52.134;5.596;2023-06-24T05:34:30;17.45;;;11.40;;
19205;SDS011;59358;52.134;5.596;2023-06-24T05:36:57;14.90;;;10.55;;
19205;SDS011;59358;52.134;5.596;2023-06-24T05:39:24;12.25;;;9.25;;
19205;SDS011;59358;52.134;5.596;2023-06-24T05:41:51;17.75;;;10.88;;
19205;SDS011;59358;52.134;5.596;2023-06-24T05:44:18;13.00;;;10.38;;
19205;SDS011;59358;52.134;5.596;2023-06-24T05:46:45;10.07;;;8.57;;
19205;SDS011;59358;52.134;5.596;2023-06-24T05:49:13;13.68;;;9.45;;
19205;SDS011;59358;52.134;5.596;2023-06-24T05:51:40;14.35;;;9.25;;
19205;SDS011;59358;52.134;5.596;2023-06-24T05:54:07;13.90;;;9.82;;
19205;SDS011;59358;52.134;5.596;2023-06-24T05:56:34;12.02;;;9.63;;
19205;SDS011;59358;52.134;5.596;2023-06-24T05:59:02;12.88;;;8.73;;
19205;SDS011;59358;52.134;5.596;2023-06-24T06:01:28;16.65;;;9.10;;
19205;SDS011;59358;52.134;5.596;2023-06-24T06:03:55;16.60;;;8.60;;
19205;SDS011;59358;52.134;5.596;2023-06-24T06:06:24;11.95;;;9.27;;
19205;SDS011;59358;52.134;5.596;2023-06-24T06:08:50;13.85;;;8.68;;
19205;SDS011;59358;52.134;5.596;2023-06-24T06:11:17;13.30;;;8.65;;
19205;SDS011;59358;52.134;5.596;2023-06-24T06:13:44;11.02;;;8.90;;
19205;SDS011;59358;52.134;5.596;2023-06-24T06:16:11;11.60;;;8.88;;
19205;SDS011;59358;52.134;5.596;2023-06-24T06:18:38;12.27;;;8.93;;
19205;SDS011;59358;52.134;5.596;2023-06-24T06:21:05;13.82;;;8.30;;
19205;SDS011;59358;52.134;5.596;2023-06-24T06:23:33;12.50;;;8.48;;
19205;SDS011;59358;52.134;5.596;2023-06-24T06:26:00;10.68;;;7.80;;
19205;SDS011;59358;52.134;5.596;2023-06-24T06:28:27;13.82;;;8.10;;
19205;SDS011;59358;52.134;5.596;2023-06-24T06:30:54;10.00;;;7.45;;
19205;SDS011;59358;52.134;5.596;2023-06-24T06:33:25;10.25;;;7.80;;
19205;SDS011;59358;52.134;5.596;2023-06-24T06:35:52;9.30;;;7.25;;
19205;SDS011;59358;52.134;5.596;2023-06-24T06:38:19;10.07;;;8.27;;
19205;SDS011;59358;52.134;5.596;2023-06-24T06:40:47;11.18;;;8.10;;
19205;SDS011;59358;52.134;5.596;2023-06-24T06:43:14;11.45;;;7.35;;
19205;SDS011;59358;52.134;5.596;2023-06-24T06:45:40;10.52;;;7.90;;
19205;SDS011;59358;52.134;5.596;2023-06-24T06:48:07;11.30;;;8.00;;
19205;SDS011;59358;52.134;5.596;2023-06-24T06:50:34;13.18;;;8.10;;
19205;SDS011;59358;52.134;5.596;2023-06-24T06:53:01;11.85;;;8.57;;
19205;SDS011;59358;52.134;5.596;2023-06-24T06:55:29;9.40;;;7.43;;
19205;SDS011;59358;52.134;5.596;2023-06-24T06:57:57;8.63;;;6.32;;
19205;SDS011;59358;52.134;5.596;2023-06-24T07:00:24;9.55;;;8.07;;
19205;SDS011;59358;52.134;5.596;2023-06-24T07:02:51;10.55;;;8.02;;
19205;SDS011;59358;52.134;5.596;2023-06-24T07:05:17;13.07;;;7.68;;
19205;SDS011;59358;52.134;5.596;2023-06-24T07:07:44;10.82;;;7.25;;
19205;SDS011;59358;52.134;5.596;2023-06-24T07:10:11;11.70;;;8.18;;
19205;SDS011;59358;52.134;5.596;2023-06-24T07:12:38;9.98;;;8.23;;
19205;SDS011;59358;52.134;5.596;2023-06-24T07:15:07;12.15;;;8.20;;
19205;SDS011;59358;52.134;5.596;2023-06-24T07:17:35;11.80;;;7.97;;
19205;SDS011;59358;52.134;5.596;2023-06-24T07:20:03;10.57;;;7.97;;
19205;SDS011;59358;52.134;5.596;2023-06-24T07:22:30;9.88;;;7.88;;
19205;SDS011;59358;52.134;5.596;2023-06-24T07:24:57;9.88;;;7.05;;
19205;SDS011;59358;52.134;5.596;2023-06-24T07:27:25;10.52;;;7.18;;
19205;SDS011;59358;52.134;5.596;2023-06-24T07:29:52;9.68;;;7.13;;
19205;SDS011;59358;52.134;5.596;2023-06-24T07:32:20;10.93;;;6.28;;
19205;SDS011;59358;52.134;5.596;2023-06-24T07:34:47;10.45;;;6.97;;
19205;SDS011;59358;52.134;5.596;2023-06-24T07:37:14;10.63;;;6.82;;
19205;SDS011;59358;52.134;5.596;2023-06-24T07:39:41;10.95;;;7.53;;
19205;SDS011;59358;52.134;5.596;2023-06-24T07:42:08;9.55;;;6.93;;
19205;SDS011;59358;52.134;5.596;2023-06-24T07:44:35;10.13;;;7.63;;
19205;SDS011;59358;52.134;5.596;2023-06-24T07:47:04;10.60;;;6.40;;
19205;SDS011;59358;52.134;5.596;2023-06-24T07:49:33;8.10;;;6.70;;
19205;SDS011;59358;52.134;5.596;2023-06-24T07:52:00;8.30;;;5.72;;
19205;SDS011;59358;52.134;5.596;2023-06-24T07:54:27;10.23;;;6.63;;
19205;SDS011;59358;52.134;5.596;2023-06-24T07:56:54;13.63;;;6.05;;
19205;SDS011;59358;52.134;5.596;2023-06-24T07:59:20;10.38;;;6.90;;
19205;SDS011;59358;52.134;5.596;2023-06-24T08:01:47;8.10;;;6.15;;
19205;SDS011;59358;52.134;5.596;2023-06-24T08:04:14;10.65;;;7.85;;
19205;SDS011;59358;52.134;5.596;2023-06-24T08:06:42;6.93;;;4.97;;
19205;SDS011;59358;52.134;5.596;2023-06-24T08:09:09;6.28;;;5.20;;
19205;SDS011;59358;52.134;5.596;2023-06-24T08:11:36;6.55;;;5.65;;
19205;SDS011;59358;52.134;5.596;2023-06-24T08:14:03;8.57;;;6.68;;
19205;SDS011;59358;52.134;5.596;2023-06-24T08:16:30;8.57;;;5.90;;
19205;SDS011;59358;52.134;5.596;2023-06-24T08:18:56;7.13;;;4.55;;
19205;SDS011;59358;52.134;5.596;2023-06-24T08:21:23;6.45;;;5.07;;
19205;SDS011;59358;52.134;5.596;2023-06-24T08:23:51;6.80;;;4.88;;
19205;SDS011;59358;52.134;5.596;2023-06-24T08:26:19;6.65;;;5.28;;
19205;SDS011;59358;52.134;5.596;2023-06-24T08:28:46;9.27;;;5.45;;
19205;SDS011;59358;52.134;5.596;2023-06-24T08:31:14;7.20;;;4.93;;
19205;SDS011;59358;52.134;5.596;2023-06-24T08:33:43;5.78;;;4.53;;
19205;SDS011;59358;52.134;5.596;2023-06-24T08:36:10;7.07;;;4.95;;
19205;SDS011;59358;52.134;5.596;2023-06-24T08:38:37;7.88;;;5.20;;
19205;SDS011;59358;52.134;5.596;2023-06-24T08:41:05;9.13;;;4.95;;
19205;SDS011;59358;52.134;5.596;2023-06-24T08:43:33;7.03;;;5.00;;
19205;SDS011;59358;52.134;5.596;2023-06-24T08:46:00;7.18;;;5.07;;
19205;SDS011;59358;52.134;5.596;2023-06-24T08:48:27;9.75;;;5.43;;
19205;SDS011;59358;52.134;5.596;2023-06-24T08:50:56;6.60;;;4.75;;
19205;SDS011;59358;52.134;5.596;2023-06-24T08:53:26;8.68;;;4.88;;
19205;SDS011;59358;52.134;5.596;2023-06-24T08:55:53;8.63;;;4.30;;
19205;SDS011;59358;52.134;5.596;2023-06-24T08:58:23;8.20;;;4.32;;
19205;SDS011;59358;52.134;5.596;2023-06-24T09:00:50;6.38;;;4.95;;
19205;SDS011;59358;52.134;5.596;2023-06-24T09:03:17;6.65;;;5.18;;
19205;SDS011;59358;52.134;5.596;2023-06-24T09:05:44;7.47;;;4.90;;
19205;SDS011;59358;52.134;5.596;2023-06-24T09:08:11;7.00;;;5.60;;
19205;SDS011;59358;52.134;5.596;2023-06-24T09:10:38;11.32;;;5.18;;
19205;SDS011;59358;52.134;5.596;2023-06-24T09:13:05;7.25;;;4.88;;
19205;SDS011;59358;52.134;5.596;2023-06-24T09:15:34;5.72;;;4.45;;
19205;SDS011;59358;52.134;5.596;2023-06-24T09:18:02;6.00;;;4.47;;
19205;SDS011;59358;52.134;5.596;2023-06-24T09:20:31;9.05;;;5.72;;
19205;SDS011;59358;52.134;5.596;2023-06-24T09:23:04;6.22;;;4.80;;
19205;SDS011;59358;52.134;5.596;2023-06-24T09:25:31;6.30;;;4.90;;
19205;SDS011;59358;52.134;5.596;2023-06-24T09:27:58;6.85;;;4.40;;
19205;SDS011;59358;52.134;5.596;2023-06-24T09:30:25;6.53;;;4.75;;
19205;SDS011;59358;52.134;5.596;2023-06-24T09:32:54;8.35;;;6.20;;
19205;SDS011;59358;52.134;5.596;2023-06-24T09:35:22;7.10;;;5.57;;
19205;SDS011;59358;52.134;5.596;2023-06-24T09:37:50;6.85;;;5.43;;
19205;SDS011;59358;52.134;5.596;2023-06-24T09:40:17;7.00;;;5.57;;
19205;SDS011;59358;52.134;5.596;2023-06-24T09:42:48;9.57;;;5.75;;
19205;SDS011;59358;52.134;5.596;2023-06-24T09:45:24;6.78;;;6.05;;
19205;SDS011;59358;52.134;5.596;2023-06-24T09:47:54;8.48;;;6.20;;
19205;SDS011;59358;52.134;5.596;2023-06-24T09:50:21;10.20;;;7.13;;
19205;SDS011;59358;52.134;5.596;2023-06-24T09:52:48;9.40;;;7.05;;
19205;SDS011;59358;52.134;5.596;2023-06-24T09:55:17;8.60;;;6.05;;
19205;SDS011;59358;52.134;5.596;2023-06-24T09:57:45;12.18;;;7.10;;
19205;SDS011;59358;52.134;5.596;2023-06-24T10:00:14;7.75;;;6.10;;
19205;SDS011;59358;52.134;5.596;2023-06-24T10:02:42;9.50;;;6.13;;
19205;SDS011;59358;52.134;5.596;2023-06-24T10:05:11;7.22;;;5.80;;
19205;SDS011;59358;52.134;5.596;2023-06-24T10:07:39;9.77;;;7.30;;
19205;SDS011;59358;52.134;5.596;2023-06-24T10:10:07;11.00;;;7.28;;
19205;SDS011;59358;52.134;5.596;2023-06-24T10:12:35;8.80;;;7.15;;
19205;SDS011;59358;52.134;5.596;2023-06-24T10:15:03;10.32;;;7.00;;
19205;SDS011;59358;52.134;5.596;2023-06-24T10:17:31;9.10;;;5.85;;
19205;SDS011;59358;52.134;5.596;2023-06-24T10:19:57;8.88;;;7.65;;
19205;SDS011;59358;52.134;5.596;2023-06-24T10:22:30;8.48;;;6.85;;
19205;SDS011;59358;52.134;5.596;2023-06-24T10:24:59;9.38;;;7.40;;
19205;SDS011;59358;52.134;5.596;2023-06-24T10:27:26;10.68;;;8.25;;
19205;SDS011;59358;52.134;5.596;2023-06-24T10:29:58;12.27;;;7.63;;
19205;SDS011;59358;52.134;5.596;2023-06-24T10:32:29;10.82;;;6.53;;
19205;SDS011;59358;52.134;5.596;2023-06-24T10:35:07;10.30;;;8.27;;
19205;SDS011;59358;52.134;5.596;2023-06-24T10:37:55;10.75;;;8.68;;
19205;SDS011;59358;52.134;5.596;2023-06-24T10:40:35;11.10;;;8.07;;
19205;SDS011;59358;52.134;5.596;2023-06-24T10:43:15;10.93;;;8.05;;
19205;SDS011;59358;52.134;5.596;2023-06-24T10:45:52;11.02;;;8.43;;
19205;SDS011;59358;52.134;5.596;2023-06-24T10:48:20;8.55;;;7.38;;
19205;SDS011;59358;52.134;5.596;2023-06-24T10:50:47;9.95;;;7.88;;
19205;SDS011;59358;52.134;5.596;2023-06-24T10:53:16;12.75;;;7.95;;
19205;SDS011;59358;52.134;5.596;2023-06-24T10:55:44;13.77;;;9.73;;
19205;SDS011;59358;52.134;5.596;2023-06-24T10:58:12;14.00;;;8.88;;
19205;SDS011;59358;52.134;5.596;2023-06-24T11:00:41;10.73;;;6.88;;
19205;SDS011;59358;52.134;5.596;2023-06-24T11:03:11;9.68;;;7.25;;
19205;SDS011;59358;52.134;5.596;2023-06-24T11:05:39;7.97;;;6.93;;
19205;SDS011;59358;52.134;5.596;2023-06-24T11:08:08;11.25;;;7.53;;
19205;SDS011;59358;52.134;5.596;2023-06-24T11:10:43;10.00;;;7.28;;
19205;SDS011;59358;52.134;5.596;2023-06-24T11:13:10;10.00;;;7.22;;
19205;SDS011;59358;52.134;5.596;2023-06-24T11:15:37;10.45;;;6.55;;
19205;SDS011;59358;52.134;5.596;2023-06-24T11:18:05;10.35;;;6.47;;
19205;SDS011;59358;52.134;5.596;2023-06-24T11:20:35;10.25;;;6.85;;
19205;SDS011;59358;52.134;5.596;2023-06-24T11:23:05;9.48;;;7.45;;
19205;SDS011;59358;52.134;5.596;2023-06-24T11:25:38;8.30;;;6.40;;
19205;SDS011;59358;52.134;5.596;2023-06-24T11:28:11;7.22;;;6.47;;
19205;SDS011;59358;52.134;5.596;2023-06-24T11:30:39;9.65;;;6.50;;
19205;SDS011;59358;52.134;5.596;2023-06-24T11:33:05;7.63;;;6.57;;
19205;SDS011;59358;52.134;5.596;2023-06-24T11:35:32;8.52;;;7.15;;
19205;SDS011;59358;52.134;5.596;2023-06-24T11:38:01;9.93;;;6.07;;
19205;SDS011;59358;52.134;5.596;2023-06-24T11:40:27;9.13;;;6.95;;
19205;SDS011;59358;52.134;5.596;2023-06-24T11:43:00;9.25;;;7.57;;
19205;SDS011;59358;52.134;5.596;2023-06-24T11:45:28;6.88;;;5.97;;
19205;SDS011;59358;52.134;5.596;2023-06-24T11:48:01;9.60;;;7.68;;
19205;SDS011;59358;52.134;5.596;2023-06-24T11:50:30;9.90;;;6.45;;
19205;SDS011;59358;52.134;5.596;2023-06-24T11:52:57;8.50;;;6.82;;
19205;SDS011;59358;52.134;5.596;2023-06-24T11:55:24;7.10;;;5.20;;
19205;SDS011;59358;52.134;5.596;2023-06-24T11:57:53;9.93;;;7.18;;
19205;SDS011;59358;52.134;5.596;2023-06-24T12:00:23;8.05;;;6.78;;
19205;SDS011;59358;52.134;5.596;2023-06-24T12:02:56;11.02;;;7.45;;
19205;SDS011;59358;52.134;5.596;2023-06-24T12:05:24;7.75;;;6.95;;
19205;SDS011;59358;52.134;5.596;2023-06-24T12:07:57;8.45;;;6.88;;
19205;SDS011;59358;52.134;5.596;2023-06-24T12:10:25;7.63;;;6.90;;
19205;SDS011;59358;52.134;5.596;2023-06-24T12:12:52;7.20;;;6.15;;
19205;SDS011;59358;52.134;5.596;2023-06-24T12:15:19;9.23;;;6.60;;
19205;SDS011;59358;52.134;5.596;2023-06-24T12:17:46;6.82;;;6.13;;
19205;SDS011;59358;52.134;5.596;2023-06-24T12:20:17;7.45;;;5.53;;
19205;SDS011;59358;52.134;5.596;2023-06-24T12:22:47;6.15;;;5.55;;
19205;SDS011;59358;52.134;5.596;2023-06-24T12:25:15;8.90;;;6.00;;
19205;SDS011;59358;52.134;5.596;2023-06-24T12:27:43;7.90;;;6.03;;
19205;SDS011;59358;52.134;5.596;2023-06-24T12:30:10;8.88;;;5.80;;
19205;SDS011;59358;52.134;5.596;2023-06-24T12:32:38;8.90;;;6.80;;
19205;SDS011;59358;52.134;5.596;2023-06-24T12:35:05;9.10;;;7.88;;
19205;SDS011;59358;52.134;5.596;2023-06-24T12:37:35;8.23;;;6.82;;
19205;SDS011;59358;52.134;5.596;2023-06-24T12:40:02;9.07;;;7.00;;
19205;SDS011;59358;52.134;5.596;2023-06-24T12:42:30;8.07;;;7.18;;
19205;SDS011;59358;52.134;5.596;2023-06-24T12:44:57;9.30;;;7.53;;
19205;SDS011;59358;52.134;5.596;2023-06-24T12:47:23;9.40;;;6.90;;
19205;SDS011;59358;52.134;5.596;2023-06-24T12:49:50;9.73;;;6.75;;
19205;SDS011;59358;52.134;5.596;2023-06-24T12:52:18;8.90;;;6.30;;
19205;SDS011;59358;52.134;5.596;2023-06-24T12:54:46;9.55;;;7.20;;
19205;SDS011;59358;52.134;5.596;2023-06-24T12:57:14;11.18;;;6.88;;
19205;SDS011;59358;52.134;5.596;2023-06-24T12:59:41;13.45;;;8.80;;
19205;SDS011;59358;52.134;5.596;2023-06-24T13:02:07;10.32;;;7.72;;
19205;SDS011;59358;52.134;5.596;2023-06-24T13:04:34;12.23;;;8.32;;
19205;SDS011;59358;52.134;5.596;2023-06-24T13:07:01;7.80;;;6.22;;
19205;SDS011;59358;52.134;5.596;2023-06-24T13:09:28;9.52;;;8.52;;
19205;SDS011;59358;52.134;5.596;2023-06-24T13:11:57;12.15;;;8.27;;
19205;SDS011;59358;52.134;5.596;2023-06-24T13:14:24;9.63;;;8.15;;
19205;SDS011;59358;52.134;5.596;2023-06-24T13:16:53;9.50;;;7.47;;
19205;SDS011;59358;52.134;5.596;2023-06-24T13:19:20;9.00;;;6.80;;
19205;SDS011;59358;52.134;5.596;2023-06-24T13:21:46;8.23;;;7.38;;
19205;SDS011;59358;52.134;5.596;2023-06-24T13:24:13;7.47;;;6.50;;
19205;SDS011;59358;52.134;5.596;2023-06-24T13:26:40;12.40;;;8.68;;
19205;SDS011;59358;52.134;5.596;2023-06-24T13:29:09;10.05;;;8.00;;
19205;SDS011;59358;52.134;5.596;2023-06-24T13:31:35;10.13;;;9.15;;
19205;SDS011;59358;52.134;5.596;2023-06-24T13:34:02;9.25;;;8.23;;
19205;SDS011;59358;52.134;5.596;2023-06-24T13:36:30;8.70;;;7.35;;
19205;SDS011;59358;52.134;5.596;2023-06-24T13:39:00;8.52;;;7.63;;
19205;SDS011;59358;52.134;5.596;2023-06-24T13:41:27;10.88;;;6.53;;
19205;SDS011;59358;52.134;5.596;2023-06-24T13:43:57;8.40;;;6.55;;
19205;SDS011;59358;52.134;5.596;2023-06-24T13:46:26;13.30;;;7.70;;
19205;SDS011;59358;52.134;5.596;2023-06-24T13:48:53;8.90;;;7.50;;
19205;SDS011;59358;52.134;5.596;2023-06-24T13:51:20;8.32;;;6.93;;
19205;SDS011;59358;52.134;5.596;2023-06-24T13:53:47;8.52;;;6.28;;
19205;SDS011;59358;52.134;5.596;2023-06-24T13:56:16;7.45;;;6.55;;
19205;SDS011;59358;52.134;5.596;2023-06-24T13:58:43;8.95;;;6.65;;
19205;SDS011;59358;52.134;5.596;2023-06-24T14:01:10;12.95;;;10.45;;
19205;SDS011;59358;52.134;5.596;2023-06-24T14:03:38;11.95;;;10.60;;
19205;SDS011;59358;52.134;5.596;2023-06-24T14:06:05;10.25;;;9.05;;
19205;SDS011;59358;52.134;5.596;2023-06-24T14:08:32;9.13;;;6.22;;
19205;SDS011;59358;52.134;5.596;2023-06-24T14:10:59;8.23;;;7.03;;
19205;SDS011;59358;52.134;5.596;2023-06-24T14:13:26;9.40;;;7.18;;
19205;SDS011;59358;52.134;5.596;2023-06-24T14:15:54;10.25;;;7.30;;
19205;SDS011;59358;52.134;5.596;2023-06-24T14:18:21;7.97;;;6.20;;
19205;SDS011;59358;52.134;5.596;2023-06-24T14:20:49;10.45;;;7.78;;
19205;SDS011;59358;52.134;5.596;2023-06-24T14:23:16;7.25;;;5.85;;
19205;SDS011;59358;52.134;5.596;2023-06-24T14:25:43;7.70;;;6.55;;
19205;SDS011;59358;52.134;5.596;2023-06-24T14:28:10;11.32;;;7.63;;
19205;SDS011;59358;52.134;5.596;2023-06-24T14:30:37;7.80;;;6.05;;
19205;SDS011;59358;52.134;5.596;2023-06-24T14:33:04;8.40;;;6.47;;
19205;SDS011;59358;52.134;5.596;2023-06-24T14:35:31;6.78;;;6.07;;
19205;SDS011;59358;52.134;5.596;2023-06-24T14:37:59;9.38;;;6.75;;
19205;SDS011;59358;52.134;5.596;2023-06-24T14:40:26;7.60;;;5.47;;
19205;SDS011;59358;52.134;5.596;2023-06-24T14:42:53;7.07;;;6.40;;
19205;SDS011;59358;52.134;5.596;2023-06-24T14:45:19;9.57;;;6.45;;
19205;SDS011;59358;52.134;5.596;2023-06-24T14:47:46;9.00;;;6.75;;